sensor_id;sensor_type;location;lat;lon;timestamp;pressure;altitude;pressure_sealevel;temperature;humidity
63019;BME280;49105;46.046;10.760;2023-08-24T00:00:38;96003.47;;;21.55;100.00
63019;BME280;49105;46.046;10.760;2023-08-24T00:03:03;95999.22;;;21.54;100.00
63019;BME280;49105;46.046;10.760;2023-08-24T00:05:33;96006.63;;;21.57;100.00
63019;BME280;49105;46.046;10.760;2023-08-24T00:07:58;96002.81;;;21.58;100.00
63019;BME280;49105;46.046;10.760;2023-08-24T00:10:25;95998.53;;;21.57;100.00
63019;BME280;49105;46.046;10.760;2023-08-24T00:12:51;96001.75;;;21.38;100.00
63019;BME280;49105;46.046;10.760;2023-08-24T00:15:17;96001.25;;;21.24;100.00
63019;BME280;49105;46.046;10.760;2023-08-24T00:17:44;96000.66;;;21.18;100.00
63019;BME280;49105;46.046;10.760;2023-08-24T00:20:10;96003.47;;;21.22;100.00
63019;BME280;49105;46.046;10.760;2023-08-24T00:22:40;96001.69;;;21.26;100.00
63019;BME280;49105;46.046;10.760;2023-08-24T00:25:07;95995.28;;;21.30;100.00
63019;BME280;49105;46.046;10.760;2023-08-24T00:27:33;96001.31;;;21.36;100.00
63019;BME280;49105;46.046;10.760;2023-08-24T00:30:00;95995.13;;;21.36;100.00
63019;BME280;49105;46.046;10.760;2023-08-24T00:32:26;95994.00;;;21.37;100.00
63019;BME280;49105;46.046;10.760;2023-08-24T00:34:52;96002.22;;;21.40;100.00
63019;BME280;49105;46.046;10.760;2023-08-24T00:37:18;95996.16;;;21.43;100.00
63019;BME280;49105;46.046;10.760;2023-08-24T00:39:44;96001.88;;;21.42;100.00
63019;BME280;49105;46.046;10.760;2023-08-24T00:42:11;95994.84;;;21.28;100.00
63019;BME280;49105;46.046;10.760;2023-08-24T00:44:40;95989.34;;;21.25;100.00
63019;BME280;49105;46.046;10.760;2023-08-24T00:47:07;95996.06;;;21.31;100.00
63019;BME280;49105;46.046;10.760;2023-08-24T00:49:33;95992.75;;;21.34;100.00
63019;BME280;49105;46.046;10.760;2023-08-24T00:52:00;95989.78;;;21.27;100.00
63019;BME280;49105;46.046;10.760;2023-08-24T00:54:26;96004.31;;;21.14;100.00
63019;BME280;49105;46.046;10.760;2023-08-24T00:56:53;95996.13;;;21.10;100.00
63019;BME280;49105;46.046;10.760;2023-08-24T00:59:19;95996.72;;;21.16;100.00
63019;BME280;49105;46.046;10.760;2023-08-24T01:01:46;96001.56;;;21.22;100.00
63019;BME280;49105;46.046;10.760;2023-08-24T01:04:13;96001.78;;;21.17;100.00
63019;BME280;49105;46.046;10.760;2023-08-24T01:06:38;96001.50;;;21.10;100.00
63019;BME280;49105;46.046;10.760;2023-08-24T01:09:06;96000.41;;;21.11;100.00
63019;BME280;49105;46.046;10.760;2023-08-24T01:17:18;95997.63;;;21.20;100.00
63019;BME280;49105;46.046;10.760;2023-08-24T01:19:47;96001.56;;;21.22;100.00
63019;BME280;49105;46.046;10.760;2023-08-24T01:27:32;96013.00;;;21.19;100.00
63019;BME280;49105;46.046;10.760;2023-08-24T01:30:02;96009.84;;;21.17;100.00
63019;BME280;49105;46.046;10.760;2023-08-24T01:32:32;96008.94;;;21.13;100.00
63019;BME280;49105;46.046;10.760;2023-08-24T01:35:01;96000.97;;;21.17;100.00
63019;BME280;49105;46.046;10.760;2023-08-24T01:37:27;96007.16;;;21.17;100.00
63019;BME280;49105;46.046;10.760;2023-08-24T01:40:06;96005.59;;;21.16;100.00
63019;BME280;49105;46.046;10.760;2023-08-24T01:42:44;95997.50;;;21.16;100.00
63019;BME280;49105;46.046;10.760;2023-08-24T01:45:12;96002.50;;;21.05;100.00
63019;BME280;49105;46.046;10.760;2023-08-24T01:47:41;96002.25;;;20.98;100.00
63019;BME280;49105;46.046;10.760;2023-08-24T01:50:09;96012.91;;;20.95;100.00
63019;BME280;49105;46.046;10.760;2023-08-24T01:52:35;96012.56;;;20.96;100.00
63019;BME280;49105;46.046;10.760;2023-08-24T01:55:02;96011.31;;;20.94;100.00
63019;BME280;49105;46.046;10.760;2023-08-24T01:57:28;96014.47;;;20.96;100.00
63019;BME280;49105;46.046;10.760;2023-08-24T01:59:55;96010.22;;;20.95;100.00
63019;BME280;49105;46.046;10.760;2023-08-24T02:02:21;96002.13;;;20.95;100.00
63019;BME280;49105;46.046;10.760;2023-08-24T02:04:47;96005.28;;;20.97;100.00
63019;BME280;49105;46.046;10.760;2023-08-24T02:07:13;96000.03;;;21.00;100.00
63019;BME280;49105;46.046;10.760;2023-08-24T02:09:39;95997.69;;;20.99;100.00
63019;BME280;49105;46.046;10.760;2023-08-24T02:12:05;95992.94;;;20.96;100.00
63019;BME280;49105;46.046;10.760;2023-08-24T02:14:32;95991.25;;;20.91;100.00
63019;BME280;49105;46.046;10.760;2023-08-24T02:16:58;95987.31;;;20.89;100.00
63019;BME280;49105;46.046;10.760;2023-08-24T02:19:24;95985.41;;;20.89;100.00
63019;BME280;49105;46.046;10.760;2023-08-24T02:21:50;95996.63;;;20.91;100.00
63019;BME280;49105;46.046;10.760;2023-08-24T02:24:16;95992.41;;;20.81;100.00
63019;BME280;49105;46.046;10.760;2023-08-24T02:26:42;95986.88;;;20.66;100.00
63019;BME280;49105;46.046;10.760;2023-08-24T02:29:08;95987.81;;;20.61;100.00
63019;BME280;49105;46.046;10.760;2023-08-24T02:31:35;95980.16;;;20.51;100.00
63019;BME280;49105;46.046;10.760;2023-08-24T02:34:01;95982.25;;;20.45;100.00
63019;BME280;49105;46.046;10.760;2023-08-24T02:36:27;95982.50;;;20.52;100.00
63019;BME280;49105;46.046;10.760;2023-08-24T02:38:53;95978.72;;;20.53;100.00
63019;BME280;49105;46.046;10.760;2023-08-24T02:41:19;95984.44;;;20.52;100.00
63019;BME280;49105;46.046;10.760;2023-08-24T02:43:45;95981.28;;;20.50;100.00
63019;BME280;49105;46.046;10.760;2023-08-24T02:46:11;95984.28;;;20.48;100.00
63019;BME280;49105;46.046;10.760;2023-08-24T02:48:37;95983.03;;;20.46;100.00
63019;BME280;49105;46.046;10.760;2023-08-24T02:51:04;95987.13;;;20.52;100.00
63019;BME280;49105;46.046;10.760;2023-08-24T02:53:30;95991.19;;;20.58;100.00
63019;BME280;49105;46.046;10.760;2023-08-24T02:55:56;95983.38;;;20.65;100.00
63019;BME280;49105;46.046;10.760;2023-08-24T02:58:22;95980.22;;;20.63;100.00
63019;BME280;49105;46.046;10.760;2023-08-24T03:00:48;95984.03;;;20.62;100.00
63019;BME280;49105;46.046;10.760;2023-08-24T03:03:14;95987.19;;;20.64;100.00
63019;BME280;49105;46.046;10.760;2023-08-24T03:05:40;95978.81;;;20.66;100.00
63019;BME280;49105;46.046;10.760;2023-08-24T03:08:06;95977.53;;;20.63;100.00
63019;BME280;49105;46.046;10.760;2023-08-24T03:10:35;95976.03;;;20.53;100.00
63019;BME280;49105;46.046;10.760;2023-08-24T03:13:01;95974.69;;;20.39;100.00
63019;BME280;49105;46.046;10.760;2023-08-24T03:15:27;95973.75;;;20.35;100.00
63019;BME280;49105;46.046;10.760;2023-08-24T03:17:53;95984.00;;;20.41;100.00
63019;BME280;49105;46.046;10.760;2023-08-24T03:20:20;95984.28;;;20.48;100.00
63019;BME280;49105;46.046;10.760;2023-08-24T03:22:48;95983.47;;;20.48;100.00
63019;BME280;49105;46.046;10.760;2023-08-24T03:25:14;95985.88;;;20.49;100.00
63019;BME280;49105;46.046;10.760;2023-08-24T03:27:39;95987.13;;;20.52;100.00
63019;BME280;49105;46.046;10.760;2023-08-24T03:30:06;95980.63;;;20.53;100.00
63019;BME280;49105;46.046;10.760;2023-08-24T03:32:35;95979.81;;;20.52;100.00
63019;BME280;49105;46.046;10.760;2023-08-24T03:35:02;95985.69;;;20.54;100.00
63019;BME280;49105;46.046;10.760;2023-08-24T03:37:28;95972.53;;;20.53;100.00
63019;BME280;49105;46.046;10.760;2023-08-24T03:39:54;95974.44;;;20.52;100.00
63019;BME280;49105;46.046;10.760;2023-08-24T03:42:20;95982.94;;;20.33;100.00
63019;BME280;49105;46.046;10.760;2023-08-24T03:44:46;95987.25;;;20.26;100.00
63019;BME280;49105;46.046;10.760;2023-08-24T03:47:12;95984.09;;;20.24;100.00
63019;BME280;49105;46.046;10.760;2023-08-24T03:49:42;95988.03;;;20.26;100.00
63019;BME280;49105;46.046;10.760;2023-08-24T03:52:08;95990.34;;;20.37;100.00
63019;BME280;49105;46.046;10.760;2023-08-24T03:54:34;95993.69;;;20.33;100.00
63019;BME280;49105;46.046;10.760;2023-08-24T03:57:01;95981.34;;;20.32;100.00
63019;BME280;49105;46.046;10.760;2023-08-24T03:59:27;95983.41;;;20.36;100.00
63019;BME280;49105;46.046;10.760;2023-08-24T04:01:53;95982.28;;;20.37;100.00
63019;BME280;49105;46.046;10.760;2023-08-24T04:04:19;95985.78;;;20.37;100.00
63019;BME280;49105;46.046;10.760;2023-08-24T04:06:45;95991.31;;;20.32;100.00
63019;BME280;49105;46.046;10.760;2023-08-24T04:09:11;95993.09;;;20.28;100.00
63019;BME280;49105;46.046;10.760;2023-08-24T04:11:37;95991.06;;;20.25;100.00
63019;BME280;49105;46.046;10.760;2023-08-24T04:14:03;95986.34;;;20.22;100.00
63019;BME280;49105;46.046;10.760;2023-08-24T04:16:30;95982.38;;;20.19;100.00
63019;BME280;49105;46.046;10.760;2023-08-24T04:19:00;95987.47;;;20.21;100.00
63019;BME280;49105;46.046;10.760;2023-08-24T04:21:27;95990.00;;;20.17;100.00
63019;BME280;49105;46.046;10.760;2023-08-24T04:23:53;95987.31;;;20.17;100.00
63019;BME280;49105;46.046;10.760;2023-08-24T04:26:19;95987.63;;;20.16;100.00
63019;BME280;49105;46.046;10.760;2023-08-24T04:28:45;95993.00;;;20.16;100.00
63019;BME280;49105;46.046;10.760;2023-08-24T04:31:11;95996.81;;;20.15;100.00
63019;BME280;49105;46.046;10.760;2023-08-24T04:33:38;95996.31;;;20.21;100.00
63019;BME280;49105;46.046;10.760;2023-08-24T04:36:05;96004.38;;;20.21;100.00
63019;BME280;49105;46.046;10.760;2023-08-24T04:38:31;96001.53;;;20.18;100.00
63019;BME280;49105;46.046;10.760;2023-08-24T04:40:57;96000.75;;;20.17;100.00
63019;BME280;49105;46.046;10.760;2023-08-24T04:43:24;96002.31;;;20.18;100.00
63019;BME280;49105;46.046;10.760;2023-08-24T04:45:52;96003.44;;;20.17;100.00
63019;BME280;49105;46.046;10.760;2023-08-24T04:48:19;96001.19;;;20.19;100.00
63019;BME280;49105;46.046;10.760;2023-08-24T04:50:45;96010.56;;;20.13;100.00
63019;BME280;49105;46.046;10.760;2023-08-24T04:53:16;96011.59;;;20.00;100.00
63019;BME280;49105;46.046;10.760;2023-08-24T04:55:43;96008.72;;;20.05;100.00
63019;BME280;49105;46.046;10.760;2023-08-24T04:58:13;96004.56;;;20.07;100.00
63019;BME280;49105;46.046;10.760;2023-08-24T05:00:38;96004.56;;;20.16;100.00
63019;BME280;49105;46.046;10.760;2023-08-24T05:03:06;96012.44;;;20.21;100.00
63019;BME280;49105;46.046;10.760;2023-08-24T05:05:33;96012.78;;;20.11;100.00
63019;BME280;49105;46.046;10.760;2023-08-24T05:07:59;96013.56;;;20.12;100.00
63019;BME280;49105;46.046;10.760;2023-08-24T05:10:26;96014.19;;;20.17;100.00
63019;BME280;49105;46.046;10.760;2023-08-24T05:12:54;96012.44;;;20.21;100.00
63019;BME280;49105;46.046;10.760;2023-08-24T05:15:21;96010.00;;;20.28;100.00
63019;BME280;49105;46.046;10.760;2023-08-24T05:17:47;96015.38;;;20.28;100.00
63019;BME280;49105;46.046;10.760;2023-08-24T05:20:13;96015.13;;;20.21;100.00
63019;BME280;49105;46.046;10.760;2023-08-24T05:22:39;96020.00;;;20.19;100.00
63019;BME280;49105;46.046;10.760;2023-08-24T05:25:06;96022.25;;;20.17;100.00
63019;BME280;49105;46.046;10.760;2023-08-24T05:27:32;96017.16;;;20.24;100.00
63019;BME280;49105;46.046;10.760;2023-08-24T05:29:58;96018.47;;;20.39;100.00
63019;BME280;49105;46.046;10.760;2023-08-24T05:32:24;96018.44;;;20.48;100.00
63019;BME280;49105;46.046;10.760;2023-08-24T05:34:50;96018.53;;;20.60;100.00
63019;BME280;49105;46.046;10.760;2023-08-24T05:37:16;96024.75;;;20.73;100.00
63019;BME280;49105;46.046;10.760;2023-08-24T05:39:42;96017.53;;;20.65;100.00
63019;BME280;49105;46.046;10.760;2023-08-24T05:42:08;96014.72;;;20.61;100.00
63019;BME280;49105;46.046;10.760;2023-08-24T05:44:34;96014.63;;;20.58;100.00
63019;BME280;49105;46.046;10.760;2023-08-24T05:47:00;96021.22;;;20.60;100.00
63019;BME280;49105;46.046;10.760;2023-08-24T05:49:27;96010.25;;;20.65;100.00
63019;BME280;49105;46.046;10.760;2023-08-24T05:51:53;96013.84;;;20.78;100.00
63019;BME280;49105;46.046;10.760;2023-08-24T05:54:19;96018.88;;;20.79;100.00
63019;BME280;49105;46.046;10.760;2023-08-24T05:56:46;96019.78;;;20.84;100.00
63019;BME280;49105;46.046;10.760;2023-08-24T05:59:12;96028.13;;;20.91;100.00
63019;BME280;49105;46.046;10.760;2023-08-24T06:01:38;96022.19;;;20.97;100.00
63019;BME280;49105;46.046;10.760;2023-08-24T06:04:08;96013.22;;;20.93;100.00
63019;BME280;49105;46.046;10.760;2023-08-24T06:06:34;96017.47;;;20.94;100.00
63019;BME280;49105;46.046;10.760;2023-08-24T06:09:01;96014.06;;;21.06;100.00
63019;BME280;49105;46.046;10.760;2023-08-24T06:11:27;96015.88;;;21.14;100.00
63019;BME280;49105;46.046;10.760;2023-08-24T06:13:54;96023.88;;;21.23;100.00
63019;BME280;49105;46.046;10.760;2023-08-24T06:16:20;96018.91;;;21.34;100.00
63019;BME280;49105;46.046;10.760;2023-08-24T06:18:46;96029.19;;;21.31;100.00
63019;BME280;49105;46.046;10.760;2023-08-24T06:21:12;96020.81;;;21.33;100.00
63019;BME280;49105;46.046;10.760;2023-08-24T06:23:38;96021.19;;;21.44;100.00
63019;BME280;49105;46.046;10.760;2023-08-24T06:26:04;96019.19;;;21.53;100.00
63019;BME280;49105;46.046;10.760;2023-08-24T06:28:30;96019.31;;;21.57;100.00
63019;BME280;49105;46.046;10.760;2023-08-24T06:30:56;96026.03;;;21.63;100.00
63019;BME280;49105;46.046;10.760;2023-08-24T06:33:27;96019.44;;;21.72;100.00
63019;BME280;49105;46.046;10.760;2023-08-24T06:36:01;96027.19;;;21.74;100.00
63019;BME280;49105;46.046;10.760;2023-08-24T06:38:27;96020.81;;;21.78;100.00
63019;BME280;49105;46.046;10.760;2023-08-24T06:40:53;96020.34;;;21.76;100.00
63019;BME280;49105;46.046;10.760;2023-08-24T06:43:19;96006.88;;;21.76;100.00
63019;BME280;49105;46.046;10.760;2023-08-24T06:45:45;96018.09;;;21.78;100.00
63019;BME280;49105;46.046;10.760;2023-08-24T06:48:11;96008.34;;;21.86;100.00
63019;BME280;49105;46.046;10.760;2023-08-24T06:50:37;96015.44;;;21.91;100.00
63019;BME280;49105;46.046;10.760;2023-08-24T06:53:03;96014.75;;;21.94;100.00
63019;BME280;49105;46.046;10.760;2023-08-24T06:55:29;96006.44;;;21.99;100.00
63019;BME280;49105;46.046;10.760;2023-08-24T06:57:55;96005.56;;;22.07;100.00
63019;BME280;49105;46.046;10.760;2023-08-24T07:00:21;96007.59;;;22.22;100.00
63019;BME280;49105;46.046;10.760;2023-08-24T07:02:48;96006.34;;;22.32;100.00
63019;BME280;49105;46.046;10.760;2023-08-24T07:05:15;96000.84;;;22.41;100.00
63019;BME280;49105;46.046;10.760;2023-08-24T07:07:46;95999.56;;;22.50;100.00
63019;BME280;49105;46.046;10.760;2023-08-24T07:10:12;96000.38;;;22.51;100.00
63019;BME280;49105;46.046;10.760;2023-08-24T07:12:38;95999.00;;;22.57;100.00
63019;BME280;49105;46.046;10.760;2023-08-24T07:15:10;95988.75;;;22.63;100.00
63019;BME280;49105;46.046;10.760;2023-08-24T07:17:36;95995.50;;;22.69;100.00
63019;BME280;49105;46.046;10.760;2023-08-24T07:20:03;95987.25;;;22.77;100.00
63019;BME280;49105;46.046;10.760;2023-08-24T07:22:31;95985.03;;;22.79;100.00
63019;BME280;49105;46.046;10.760;2023-08-24T07:24:57;95982.28;;;22.92;100.00
63019;BME280;49105;46.046;10.760;2023-08-24T07:27:22;95978.59;;;22.96;100.00
63019;BME280;49105;46.046;10.760;2023-08-24T07:29:48;95975.63;;;23.01;100.00
63019;BME280;49105;46.046;10.760;2023-08-24T07:32:14;95983.56;;;23.10;100.00
63019;BME280;49105;46.046;10.760;2023-08-24T07:34:40;95986.13;;;23.19;100.00
63019;BME280;49105;46.046;10.760;2023-08-24T07:37:06;95976.78;;;23.16;100.00
63019;BME280;49105;46.046;10.760;2023-08-24T07:39:32;95980.97;;;23.14;98.86
63019;BME280;49105;46.046;10.760;2023-08-24T07:41:58;95979.75;;;23.11;96.69
63019;BME280;49105;46.046;10.760;2023-08-24T07:44:23;95974.53;;;23.18;99.13
63019;BME280;49105;46.046;10.760;2023-08-24T07:46:49;95969.66;;;23.24;97.89
63019;BME280;49105;46.046;10.760;2023-08-24T07:49:15;95963.31;;;23.32;98.89
63019;BME280;49105;46.046;10.760;2023-08-24T07:51:41;95972.59;;;23.47;100.00
63019;BME280;49105;46.046;10.760;2023-08-24T07:54:08;95973.19;;;23.56;99.15
63019;BME280;49105;46.046;10.760;2023-08-24T07:56:35;95966.41;;;23.62;97.77
63019;BME280;49105;46.046;10.760;2023-08-24T07:59:01;95964.41;;;23.59;93.45
63019;BME280;49105;46.046;10.760;2023-08-24T08:01:27;95968.44;;;23.65;94.49
63019;BME280;49105;46.046;10.760;2023-08-24T08:03:52;95967.38;;;23.70;95.50
63019;BME280;49105;46.046;10.760;2023-08-24T08:06:18;95972.38;;;23.84;95.95
63019;BME280;49105;46.046;10.760;2023-08-24T08:08:44;95960.88;;;23.87;93.25
63019;BME280;49105;46.046;10.760;2023-08-24T08:11:11;95954.91;;;23.97;94.45
63019;BME280;49105;46.046;10.760;2023-08-24T08:13:37;95956.28;;;24.07;92.69
63019;BME280;49105;46.046;10.760;2023-08-24T08:16:04;95952.28;;;24.16;93.71
63019;BME280;49105;46.046;10.760;2023-08-24T08:18:32;95947.81;;;24.24;94.61
63019;BME280;49105;46.046;10.760;2023-08-24T08:20:57;95939.34;;;24.25;91.15
63019;BME280;49105;46.046;10.760;2023-08-24T08:23:23;95935.56;;;24.30;90.62
63019;BME280;49105;46.046;10.760;2023-08-24T08:25:49;95930.66;;;24.36;88.47
63019;BME280;49105;46.046;10.760;2023-08-24T08:28:14;95924.28;;;24.44;89.25
63019;BME280;49105;46.046;10.760;2023-08-24T08:30:40;95920.53;;;24.48;87.18
63019;BME280;49105;46.046;10.760;2023-08-24T08:33:06;95917.03;;;24.48;86.97
63019;BME280;49105;46.046;10.760;2023-08-24T08:35:32;95918.25;;;24.50;83.71
63019;BME280;49105;46.046;10.760;2023-08-24T08:37:58;95919.88;;;24.55;83.54
63019;BME280;49105;46.046;10.760;2023-08-24T08:40:25;95921.59;;;24.63;81.96
63019;BME280;49105;46.046;10.760;2023-08-24T08:42:57;95911.69;;;24.71;81.95
63019;BME280;49105;46.046;10.760;2023-08-24T08:45:25;95911.78;;;24.74;78.73
63019;BME280;49105;46.046;10.760;2023-08-24T08:47:53;95912.34;;;24.84;81.24
63019;BME280;49105;46.046;10.760;2023-08-24T08:50:22;95913.75;;;24.97;84.12
63019;BME280;49105;46.046;10.760;2023-08-24T08:52:48;95906.97;;;25.07;85.64
63019;BME280;49105;46.046;10.760;2023-08-24T08:55:14;95904.47;;;25.17;86.45
63019;BME280;49105;46.046;10.760;2023-08-24T08:57:41;95900.75;;;25.25;87.23
63019;BME280;49105;46.046;10.760;2023-08-24T09:00:10;95909.72;;;25.30;83.42
63019;BME280;49105;46.046;10.760;2023-08-24T09:02:38;95903.66;;;25.36;82.01
63019;BME280;49105;46.046;10.760;2023-08-24T09:05:04;95898.34;;;25.43;79.77
63019;BME280;49105;46.046;10.760;2023-08-24T09:07:32;95899.19;;;25.47;80.54
63019;BME280;49105;46.046;10.760;2023-08-24T09:10:01;95889.22;;;25.55;80.77
63019;BME280;49105;46.046;10.760;2023-08-24T09:12:31;95885.41;;;25.56;81.04
63019;BME280;49105;46.046;10.760;2023-08-24T09:14:58;95888.09;;;25.56;78.13
63019;BME280;49105;46.046;10.760;2023-08-24T09:17:25;95883.94;;;25.62;79.72
63019;BME280;49105;46.046;10.760;2023-08-24T09:19:51;95878.19;;;25.67;80.53
63019;BME280;49105;46.046;10.760;2023-08-24T09:22:19;95875.19;;;25.72;80.15
63019;BME280;49105;46.046;10.760;2023-08-24T09:24:49;95881.09;;;25.78;78.63
63019;BME280;49105;46.046;10.760;2023-08-24T09:27:19;95873.16;;;25.89;80.34
63019;BME280;49105;46.046;10.760;2023-08-24T09:29:52;95868.28;;;26.02;80.55
63019;BME280;49105;46.046;10.760;2023-08-24T09:32:27;95868.34;;;26.05;75.71
63019;BME280;49105;46.046;10.760;2023-08-24T09:34:54;95863.00;;;26.12;75.38
63019;BME280;49105;46.046;10.760;2023-08-24T09:37:20;95854.56;;;26.21;74.12
63019;BME280;49105;46.046;10.760;2023-08-24T09:39:46;95844.66;;;26.32;74.97
63019;BME280;49105;46.046;10.760;2023-08-24T09:42:12;95844.75;;;26.39;71.25
63019;BME280;49105;46.046;10.760;2023-08-24T09:44:43;95839.00;;;26.44;69.89
63019;BME280;49105;46.046;10.760;2023-08-24T09:47:09;95841.81;;;26.52;70.28
63019;BME280;49105;46.046;10.760;2023-08-24T09:49:44;95836.81;;;26.57;68.29
63019;BME280;49105;46.046;10.760;2023-08-24T09:52:18;95834.19;;;26.64;68.93
63019;BME280;49105;46.046;10.760;2023-08-24T09:54:45;95835.06;;;26.72;70.30
63019;BME280;49105;46.046;10.760;2023-08-24T09:57:12;95830.84;;;26.78;70.85
63019;BME280;49105;46.046;10.760;2023-08-24T09:59:39;95816.53;;;26.81;70.52
63019;BME280;49105;46.046;10.760;2023-08-24T10:02:20;95812.34;;;26.87;70.84
63019;BME280;49105;46.046;10.760;2023-08-24T10:04:47;95808.88;;;26.94;69.41
63019;BME280;49105;46.046;10.760;2023-08-24T10:07:15;95809.34;;;27.00;68.77
63019;BME280;49105;46.046;10.760;2023-08-24T10:10:02;95810.16;;;27.07;67.29
63019;BME280;49105;46.046;10.760;2023-08-24T10:12:28;95806.38;;;27.15;64.80
63019;BME280;49105;46.046;10.760;2023-08-24T10:15:00;95803.72;;;27.23;64.46
63019;BME280;49105;46.046;10.760;2023-08-24T10:17:31;95789.00;;;27.27;63.20
63019;BME280;49105;46.046;10.760;2023-08-24T10:19:58;95794.91;;;27.33;63.65
63019;BME280;49105;46.046;10.760;2023-08-24T10:22:30;95790.25;;;27.37;65.75
63019;BME280;49105;46.046;10.760;2023-08-24T10:24:57;95785.22;;;27.39;66.36
63019;BME280;49105;46.046;10.760;2023-08-24T10:27:24;95792.25;;;27.43;66.65
63019;BME280;49105;46.046;10.760;2023-08-24T10:29:52;95785.69;;;27.52;64.30
63019;BME280;49105;46.046;10.760;2023-08-24T10:32:19;95781.50;;;27.61;64.68
63019;BME280;49105;46.046;10.760;2023-08-24T10:34:46;95781.94;;;27.70;64.37
63019;BME280;49105;46.046;10.760;2023-08-24T10:37:12;95776.94;;;27.76;65.24
63019;BME280;49105;46.046;10.760;2023-08-24T10:39:44;95775.03;;;27.80;66.56
63019;BME280;49105;46.046;10.760;2023-08-24T10:42:11;95768.81;;;27.83;65.48
63019;BME280;49105;46.046;10.760;2023-08-24T10:44:38;95765.38;;;27.90;64.34
63019;BME280;49105;46.046;10.760;2023-08-24T10:49:45;95757.69;;;28.06;65.91
63019;BME280;49105;46.046;10.760;2023-08-24T10:52:34;95747.56;;;28.14;66.12
63019;BME280;49105;46.046;10.760;2023-08-24T10:55:03;95742.16;;;28.21;65.44
63019;BME280;49105;46.046;10.760;2023-08-24T10:57:39;95741.03;;;28.29;64.20
63019;BME280;49105;46.046;10.760;2023-08-24T11:00:09;95735.97;;;28.35;64.35
63019;BME280;49105;46.046;10.760;2023-08-24T11:02:49;95743.03;;;28.43;63.69
63019;BME280;49105;46.046;10.760;2023-08-24T11:05:26;95733.31;;;28.49;65.35
63019;BME280;49105;46.046;10.760;2023-08-24T11:07:59;95728.28;;;28.58;65.12
63019;BME280;49105;46.046;10.760;2023-08-24T11:13:18;95727.50;;;28.76;62.84
63019;BME280;49105;46.046;10.760;2023-08-24T11:15:49;95722.06;;;28.83;63.72
63019;BME280;49105;46.046;10.760;2023-08-24T11:18:22;95717.00;;;28.88;62.34
63019;BME280;49105;46.046;10.760;2023-08-24T11:21:08;95718.59;;;28.93;62.58
63019;BME280;49105;46.046;10.760;2023-08-24T11:23:37;95707.28;;;28.94;64.16
63019;BME280;49105;46.046;10.760;2023-08-24T11:26:03;95698.72;;;28.96;65.06
63019;BME280;49105;46.046;10.760;2023-08-24T11:28:30;95701.88;;;29.05;64.18
63019;BME280;49105;46.046;10.760;2023-08-24T11:30:57;95698.75;;;29.14;64.92
63019;BME280;49105;46.046;10.760;2023-08-24T11:33:34;95698.72;;;29.21;64.55
63019;BME280;49105;46.046;10.760;2023-08-24T11:36:02;95698.34;;;29.23;64.66
63019;BME280;49105;46.046;10.760;2023-08-24T11:38:38;95701.06;;;29.30;64.58
63019;BME280;49105;46.046;10.760;2023-08-24T11:41:12;95697.16;;;29.38;63.76
63019;BME280;49105;46.046;10.760;2023-08-24T11:43:38;95692.06;;;29.47;62.94
63019;BME280;49105;46.046;10.760;2023-08-24T11:46:04;95684.66;;;29.51;62.63
63019;BME280;49105;46.046;10.760;2023-08-24T11:48:30;95686.22;;;29.59;63.54
63019;BME280;49105;46.046;10.760;2023-08-24T11:50:57;95677.63;;;29.64;62.08
63019;BME280;49105;46.046;10.760;2023-08-24T11:53:25;95677.97;;;29.70;61.87
63019;BME280;49105;46.046;10.760;2023-08-24T11:55:55;95677.59;;;29.72;62.09
63019;BME280;49105;46.046;10.760;2023-08-24T11:58:21;95674.47;;;29.73;61.13
63019;BME280;49105;46.046;10.760;2023-08-24T12:00:48;95671.31;;;29.78;60.11
63019;BME280;49105;46.046;10.760;2023-08-24T12:03:14;95665.50;;;29.76;59.50
63019;BME280;49105;46.046;10.760;2023-08-24T12:05:39;95668.59;;;29.78;59.87
63019;BME280;49105;46.046;10.760;2023-08-24T12:08:05;95666.66;;;29.79;60.55
63019;BME280;49105;46.046;10.760;2023-08-24T12:10:31;95666.63;;;29.86;60.19
63019;BME280;49105;46.046;10.760;2023-08-24T12:13:02;95656.44;;;29.94;58.50
63019;BME280;49105;46.046;10.760;2023-08-24T12:15:29;95663.06;;;29.96;59.06
63019;BME280;49105;46.046;10.760;2023-08-24T12:17:55;95649.78;;;29.98;58.87
63019;BME280;49105;46.046;10.760;2023-08-24T12:20:22;95647.41;;;30.07;58.05
63019;BME280;49105;46.046;10.760;2023-08-24T12:22:55;95658.72;;;30.17;58.18
63019;BME280;49105;46.046;10.760;2023-08-24T12:25:25;95656.34;;;30.11;58.22
63019;BME280;49105;46.046;10.760;2023-08-24T12:27:51;95650.13;;;30.07;58.69
63019;BME280;49105;46.046;10.760;2023-08-24T12:30:21;95638.44;;;30.10;58.13
63019;BME280;49105;46.046;10.760;2023-08-24T12:32:47;95634.50;;;30.19;56.67
63019;BME280;49105;46.046;10.760;2023-08-24T12:35:15;95627.47;;;30.25;57.79
63019;BME280;49105;46.046;10.760;2023-08-24T12:37:41;95635.22;;;30.30;57.56
63019;BME280;49105;46.046;10.760;2023-08-24T12:40:07;95634.44;;;30.33;58.38
63019;BME280;49105;46.046;10.760;2023-08-24T12:42:34;95627.00;;;30.37;57.72
63019;BME280;49105;46.046;10.760;2023-08-24T12:45:00;95627.38;;;30.35;57.56
63019;BME280;49105;46.046;10.760;2023-08-24T12:47:41;95620.34;;;30.38;57.01
63019;BME280;49105;46.046;10.760;2023-08-24T12:50:07;95621.47;;;30.40;56.94
63019;BME280;49105;46.046;10.760;2023-08-24T12:52:33;95610.91;;;30.46;57.15
63019;BME280;49105;46.046;10.760;2023-08-24T12:54:59;95614.84;;;30.45;56.97
63019;BME280;49105;46.046;10.760;2023-08-24T12:57:25;95609.72;;;30.51;56.03
63019;BME280;49105;46.046;10.760;2023-08-24T12:59:51;95607.72;;;30.55;56.30